Time;durP1;ratioP1;P1;durP2;ratioP2;P2;SDS_P1;SDS_P2;PMS_P1;PMS_P2;Temp;Humidity;BMP_temperature;BMP_pressure;BME280_temperature;BME280_humidity;BME280_pressure;Samples;Min_cycle;Max_cycle;Signal;HPM_P1;HPM_P2
2022/12/10 00:01:48;;;;;;;11.07;3.60;;;;;;;;;;4956654;28;20027;-29
2022/12/10 00:04:14;;;;;;;7.70;4.30;;;;;;;;;;4952191;29;20055;-29
2022/12/10 00:06:41;;;;;;;8.07;4.68;;;;;;;;;;4937532;29;20460;-29
2022/12/10 00:09:11;;;;;;;8.50;3.78;;;;;;;;;;4937211;29;20040;-30
2022/12/10 00:11:37;;;;;;;9.73;3.50;;;;;;;;;;4937607;29;20036;-29
2022/12/10 00:14:03;;;;;;;12.07;3.90;;;;;;;;;;4937133;29;20031;-30
2022/12/10 00:16:33;;;;;;;10.57;4.30;;;;;;;;;;4937183;29;20515;-29
2022/12/10 00:19:00;;;;;;;5.15;3.45;;;;;;;;;;4937222;29;20040;-30
2022/12/10 00:21:28;;;;;;;9.35;4.60;;;;;;;;;;4938817;29;20094;-29
2022/12/10 00:23:54;;;;;;;11.23;4.35;;;;;;;;;;4941195;29;20034;-29
2022/12/10 00:26:22;;;;;;;8.48;4.03;;;;;;;;;;4941510;29;20474;-29
2022/12/10 00:28:48;;;;;;;10.32;4.40;;;;;;;;;;4940948;29;20052;-30
2022/12/10 00:31:18;;;;;;;7.00;4.20;;;;;;;;;;4941158;29;20364;-29
2022/12/10 00:33:45;;;;;;;11.15;3.80;;;;;;;;;;4940872;29;20067;-29
2022/12/10 00:36:16;;;;;;;12.90;4.07;;;;;;;;;;4940835;29;20027;-29
2022/12/10 00:38:43;;;;;;;10.73;4.68;;;;;;;;;;4941138;29;20047;-29
2022/12/10 00:41:09;;;;;;;8.13;4.47;;;;;;;;;;4940669;29;20032;-29
2022/12/10 00:43:35;;;;;;;11.32;5.65;;;;;;;;;;4940652;29;20027;-29
2022/12/10 00:46:02;;;;;;;9.45;5.00;;;;;;;;;;4940872;29;20032;-29
2022/12/10 00:48:28;;;;;;;8.15;5.10;;;;;;;;;;4955615;29;20024;-29
2022/12/10 00:51:01;;;;;;;9.93;4.00;;;;;;;;;;4940823;29;20375;-30
2022/12/10 00:53:29;;;;;;;7.78;4.00;;;;;;;;;;4940465;29;20043;-30
2022/12/10 00:55:55;;;;;;;7.68;3.78;;;;;;;;;;4940737;29;20443;-29
2022/12/10 00:58:22;;;;;;;6.80;3.45;;;;;;;;;;4940448;29;20031;-30
2022/12/10 01:00:48;;;;;;;13.18;4.85;;;;;;;;;;4940370;29;20371;-29
2022/12/10 01:03:15;;;;;;;7.50;3.88;;;;;;;;;;4944243;29;20047;-29
2022/12/10 01:05:41;;;;;;;11.88;4.20;;;;;;;;;;4959742;29;20491;-29
2022/12/10 01:08:07;;;;;;;7.97;3.88;;;;;;;;;;4959447;29;20406;-29
2022/12/10 01:10:34;;;;;;;11.13;3.65;;;;;;;;;;4959402;29;20066;-29
2022/12/10 01:13:00;;;;;;;6.15;3.83;;;;;;;;;;4959542;28;20031;-29
2022/12/10 01:15:26;;;;;;;9.35;3.90;;;;;;;;;;4959552;29;20027;-29
2022/12/10 01:17:53;;;;;;;9.57;3.10;;;;;;;;;;4959232;29;20042;-29
2022/12/10 01:20:19;;;;;;;4.68;3.15;;;;;;;;;;4959392;29;20114;-29
2022/12/10 01:22:45;;;;;;;10.68;4.07;;;;;;;;;;4959023;28;20107;-29
2022/12/10 01:25:11;;;;;;;6.75;3.58;;;;;;;;;;4959083;29;20086;-30
2022/12/10 01:27:37;;;;;;;4.20;3.20;;;;;;;;;;4959362;29;20075;-28
2022/12/10 01:30:04;;;;;;;6.50;4.47;;;;;;;;;;4959016;29;20039;-29
2022/12/10 01:32:30;;;;;;;7.20;4.18;;;;;;;;;;4959000;28;20031;-29
2022/12/10 01:34:56;;;;;;;6.13;3.78;;;;;;;;;;4958973;29;20035;-29
2022/12/10 01:37:22;;;;;;;6.65;3.53;;;;;;;;;;4958887;29;20027;-29
2022/12/10 01:39:48;;;;;;;3.70;3.28;;;;;;;;;;4959030;29;20122;-28
2022/12/10 01:42:16;;;;;;;3.95;3.47;;;;;;;;;;4958923;28;20117;-28
2022/12/10 01:44:42;;;;;;;10.85;4.50;;;;;;;;;;4958762;29;20031;-28
2022/12/10 01:47:09;;;;;;;7.68;4.00;;;;;;;;;;4957784;29;20028;-29
2022/12/10 01:49:37;;;;;;;6.15;3.78;;;;;;;;;;4958678;29;20059;-29
2022/12/10 01:52:04;;;;;;;6.43;3.95;;;;;;;;;;4958526;28;20038;-29
2022/12/10 01:54:32;;;;;;;8.00;3.50;;;;;;;;;;4958809;29;20089;-29
2022/12/10 01:57:04;;;;;;;5.93;3.83;;;;;;;;;;4958489;29;20031;-29
2022/12/10 01:59:31;;;;;;;5.90;4.32;;;;;;;;;;4958727;29;20031;-29
2022/12/10 02:02:20;;;;;;;5.32;3.60;;;;;;;;;;4958342;28;20027;-28
2022/12/10 02:04:46;;;;;;;5.32;3.20;;;;;;;;;;4958133;29;20051;-29
2022/12/10 02:07:12;;;;;;;4.93;3.53;;;;;;;;;;4958362;29;20019;-29
2022/12/10 02:09:45;;;;;;;6.00;4.00;;;;;;;;;;4958294;29;20086;-28
2022/12/10 02:12:11;;;;;;;6.72;4.88;;;;;;;;;;4958431;28;20031;-29
2022/12/10 02:14:56;;;;;;;8.52;4.07;;;;;;;;;;4958464;29;20035;-29
2022/12/10 02:17:28;;;;;;;4.45;3.10;;;;;;;;;;4958157;29;20047;-29
2022/12/10 02:20:01;;;;;;;7.80;3.70;;;;;;;;;;4958363;29;20138;-29
2022/12/10 02:22:30;;;;;;;7.57;3.25;;;;;;;;;;4958230;28;20028;-29
2022/12/10 02:24:58;;;;;;;4.88;3.45;;;;;;;;;;4957995;29;20039;-29
2022/12/10 02:27:38;;;;;;;7.90;4.50;;;;;;;;;;4957944;29;20023;-28
2022/12/10 02:30:04;;;;;;;16.25;3.90;;;;;;;;;;4957979;29;20051;-28
2022/12/10 02:32:36;;;;;;;6.57;3.35;;;;;;;;;;4957803;28;20031;-29
2022/12/10 02:35:04;;;;;;;10.00;3.53;;;;;;;;;;4957769;29;20027;-30
2022/12/10 02:37:32;;;;;;;7.43;3.67;;;;;;;;;;4956865;29;20069;-29
2022/12/10 02:40:00;;;;;;;6.50;4.78;;;;;;;;;;4957918;29;20039;-29
2022/12/10 02:42:27;;;;;;;6.65;4.05;;;;;;;;;;4957789;28;20115;-29
2022/12/10 02:44:53;;;;;;;5.72;3.35;;;;;;;;;;4956990;28;20086;-29
2022/12/10 02:47:20;;;;;;;4.70;3.17;;;;;;;;;;4957561;29;20028;-28
2022/12/10 02:49:52;;;;;;;6.22;3.83;;;;;;;;;;4957872;29;20027;-29
2022/12/10 02:52:20;;;;;;;7.75;4.47;;;;;;;;;;4957424;28;20180;-29
2022/12/10 02:54:47;;;;;;;4.70;3.53;;;;;;;;;;4957794;29;20489;-29
2022/12/10 02:57:49;;;;;;;6.32;3.38;;;;;;;;;;4957410;29;20102;-29
2022/12/10 03:00:18;;;;;;;;;;;;;;;;;;4899184;29;20100;-29
2022/12/10 03:03:05;;;;;;;4.00;3.60;;;;;;;;;;4946838;28;19913;-29
2022/12/10 03:05:34;;;;;;;7.68;4.13;;;;;;;;;;4957593;29;20066;-28
2022/12/10 03:08:09;;;;;;;5.15;3.55;;;;;;;;;;4957303;29;20031;-29
2022/12/10 03:10:39;;;;;;;8.25;3.45;;;;;;;;;;4957068;29;20031;-28
2022/12/10 03:13:07;;;;;;;7.55;4.30;;;;;;;;;;4957079;28;20070;-29
2022/12/10 03:15:35;;;;;;;15.35;4.43;;;;;;;;;;4956162;29;20039;-29
2022/12/10 03:18:04;;;;;;;4.45;3.40;;;;;;;;;;4957010;29;20031;-29
2022/12/10 03:20:32;;;;;;;7.55;4.63;;;;;;;;;;4956942;29;20031;-29
2022/12/10 03:22:58;;;;;;;5.65;3.70;;;;;;;;;;4956909;28;20031;-29
2022/12/10 03:25:25;;;;;;;7.97;3.90;;;;;;;;;;4956935;29;20035;-29
2022/12/10 03:27:54;;;;;;;8.43;4.05;;;;;;;;;;4956372;29;20034;-29
2022/12/10 03:30:20;;;;;;;5.32;3.47;;;;;;;;;;4956840;29;20099;-29
2022/12/10 03:32:47;;;;;;;7.28;4.22;;;;;;;;;;4956765;28;20114;-29
2022/12/10 03:35:13;;;;;;;4.82;3.35;;;;;;;;;;4956819;29;20031;-29
2022/12/10 03:37:40;;;;;;;5.78;4.43;;;;;;;;;;4956834;29;20035;-28
2022/12/10 03:40:06;;;;;;;6.32;3.95;;;;;;;;;;4956711;29;20035;-29
2022/12/10 03:42:35;;;;;;;5.88;3.35;;;;;;;;;;4956619;28;20027;-29
2022/12/10 03:45:01;;;;;;;9.07;4.30;;;;;;;;;;4956600;29;20038;-29
2022/12/10 03:47:27;;;;;;;6.45;3.25;;;;;;;;;;4956906;29;20027;-29
2022/12/10 03:49:53;;;;;;;4.50;3.63;;;;;;;;;;4956635;29;20086;-29
2022/12/10 03:52:20;;;;;;;5.03;3.28;;;;;;;;;;4956497;28;20482;-28
2022/12/10 03:54:46;;;;;;;5.18;4.63;;;;;;;;;;4955546;28;20039;-29
2022/12/10 03:57:12;;;;;;;6.32;4.22;;;;;;;;;;4956524;29;20042;-29
2022/12/10 03:59:38;;;;;;;6.38;5.15;;;;;;;;;;4956669;29;20130;-28
2022/12/10 04:02:05;;;;;;;6.25;3.95;;;;;;;;;;4956679;28;20447;-29
2022/12/10 04:04:31;;;;;;;7.10;4.47;;;;;;;;;;4956270;29;20051;-29
2022/12/10 04:06:57;;;;;;;4.25;3.70;;;;;;;;;;4956405;29;20340;-28
2022/12/10 04:09:23;;;;;;;6.30;3.20;;;;;;;;;;4956401;29;20023;-29
2022/12/10 04:11:49;;;;;;;6.10;3.58;;;;;;;;;;4955475;28;20031;-29
2022/12/10 04:17:01;;;;;;;7.13;3.40;;;;;;;;;;4956436;29;20050;-29
2022/12/10 04:19:27;;;;;;;6.75;4.07;;;;;;;;;;4956232;29;20455;-29
2022/12/10 04:27:27;;;;;;;5.45;3.47;;;;;;;;;;4956857;29;20407;-29
2022/12/10 04:29:54;;;;;;;6.10;3.50;;;;;;;;;;4956553;29;20055;-28
2022/12/10 04:32:21;;;;;;;4.20;3.63;;;;;;;;;;4956350;28;20031;-29
2022/12/10 04:34:47;;;;;;;4.85;3.70;;;;;;;;;;4955256;29;20370;-29
2022/12/10 04:37:13;;;;;;;6.10;3.33;;;;;;;;;;4956943;29;20035;-28
2022/12/10 04:39:40;;;;;;;5.50;3.85;;;;;;;;;;4956388;29;21894;-29
2022/12/10 04:42:07;;;;;;;4.00;3.30;;;;;;;;;;4955161;28;20031;-29
2022/12/10 04:44:33;;;;;;;5.97;4.28;;;;;;;;;;4956878;29;20031;-29
2022/12/10 04:46:59;;;;;;;3.85;3.45;;;;;;;;;;4956072;29;20031;-29
2022/12/10 04:49:26;;;;;;;5.10;4.03;;;;;;;;;;4956084;29;20035;-29
2022/12/10 04:51:52;;;;;;;8.35;4.32;;;;;;;;;;4956025;28;20394;-29
2022/12/10 04:54:19;;;;;;;5.72;3.83;;;;;;;;;;4956292;29;20033;-28
2022/12/10 04:56:45;;;;;;;6.60;3.72;;;;;;;;;;4955056;29;20181;-29
2022/12/10 04:59:12;;;;;;;8.45;3.95;;;;;;;;;;4956006;29;20070;-29
2022/12/10 05:01:38;;;;;;;5.00;3.30;;;;;;;;;;4955899;29;20097;-29
2022/12/10 05:04:06;;;;;;;5.93;4.10;;;;;;;;;;4951543;28;20054;-29
2022/12/10 05:06:32;;;;;;;5.63;3.45;;;;;;;;;;4951863;28;20099;-29
2022/12/10 05:08:59;;;;;;;3.55;3.22;;;;;;;;;;4954649;29;20031;-28
2022/12/10 05:11:26;;;;;;;5.30;3.78;;;;;;;;;;4939391;29;20032;-29
2022/12/10 05:13:53;;;;;;;8.20;3.97;;;;;;;;;;4939346;29;20031;-29
2022/12/10 05:16:20;;;;;;;5.82;3.30;;;;;;;;;;4939649;29;20426;-28
2022/12/10 05:18:46;;;;;;;5.25;3.40;;;;;;;;;;4939465;29;20027;-28
2022/12/10 05:21:13;;;;;;;5.82;3.28;;;;;;;;;;4939332;29;20039;-29
2022/12/10 05:23:42;;;;;;;5.95;3.40;;;;;;;;;;4939276;29;20431;-29
2022/12/10 05:26:09;;;;;;;5.65;3.15;;;;;;;;;;4939235;29;20052;-28
2022/12/10 05:28:37;;;;;;;3.78;3.42;;;;;;;;;;4939145;29;20384;-29
2022/12/10 05:31:04;;;;;;;4.68;3.70;;;;;;;;;;4939172;29;20103;-29
2022/12/10 05:33:31;;;;;;;6.43;3.72;;;;;;;;;;4938228;29;20083;-28
2022/12/10 05:36:02;;;;;;;4.72;4.07;;;;;;;;;;4939214;29;20031;-29
2022/12/10 05:38:29;;;;;;;6.78;3.42;;;;;;;;;;4939189;29;20027;-29
2022/12/10 05:40:55;;;;;;;4.32;3.75;;;;;;;;;;4954043;29;20038;-29
2022/12/10 05:43:22;;;;;;;5.80;4.60;;;;;;;;;;4938867;29;20039;-29
2022/12/10 05:45:48;;;;;;;4.53;4.10;;;;;;;;;;4953945;29;20027;-29
2022/12/10 05:48:16;;;;;;;4.57;3.83;;;;;;;;;;4939157;29;20039;-29
2022/12/10 05:50:42;;;;;;;4.25;3.70;;;;;;;;;;4939102;29;20110;-29
2022/12/10 05:53:08;;;;;;;8.30;4.55;;;;;;;;;;4938722;29;20530;-28
2022/12/10 05:55:34;;;;;;;7.93;4.35;;;;;;;;;;4939108;29;20384;-29
2022/12/10 05:58:01;;;;;;;4.18;3.67;;;;;;;;;;4938953;29;20091;-30
2022/12/10 06:00:27;;;;;;;7.72;4.05;;;;;;;;;;4938684;29;20050;-30
2022/12/10 06:02:54;;;;;;;5.50;4.00;;;;;;;;;;4939907;29;20083;-30
2022/12/10 06:05:20;;;;;;;5.80;3.47;;;;;;;;;;4958085;29;20027;-30
2022/12/10 06:07:46;;;;;;;4.35;3.58;;;;;;;;;;4957051;29;20023;-29
2022/12/10 06:10:13;;;;;;;6.35;5.30;;;;;;;;;;4957101;29;20027;-30
2022/12/10 06:12:39;;;;;;;7.68;4.50;;;;;;;;;;4956892;28;20114;-30
2022/12/10 06:15:06;;;;;;;4.93;3.88;;;;;;;;;;4958005;29;20031;-29
2022/12/10 06:17:32;;;;;;;4.32;3.90;;;;;;;;;;4957721;28;20039;-30
2022/12/10 06:19:58;;;;;;;5.95;4.38;;;;;;;;;;4956990;29;20051;-30
2022/12/10 06:22:24;;;;;;;10.23;4.43;;;;;;;;;;4957749;28;20027;-30
2022/12/10 06:24:50;;;;;;;7.00;4.25;;;;;;;;;;4957956;29;20098;-29
2022/12/10 06:27:17;;;;;;;5.05;3.53;;;;;;;;;;4957680;29;20070;-30
2022/12/10 06:29:43;;;;;;;5.90;5.07;;;;;;;;;;4957558;29;20028;-30
2022/12/10 06:32:09;;;;;;;4.78;3.83;;;;;;;;;;4957575;28;20027;-35
2022/12/10 06:34:35;;;;;;;4.72;3.83;;;;;;;;;;4957627;29;20540;-30
2022/12/10 06:37:01;;;;;;;6.68;4.07;;;;;;;;;;4957401;29;20094;-30
2022/12/10 06:39:27;;;;;;;4.90;3.88;;;;;;;;;;4957598;29;20027;-30
2022/12/10 06:41:53;;;;;;;6.28;3.40;;;;;;;;;;4956337;28;20092;-30
2022/12/10 06:44:20;;;;;;;4.47;4.07;;;;;;;;;;4957392;29;20024;-30
2022/12/10 06:46:46;;;;;;;16.77;5.93;;;;;;;;;;4957326;29;20019;-30
2022/12/10 06:49:12;;;;;;;7.55;4.47;;;;;;;;;;4957198;29;20121;-30
2022/12/10 06:51:38;;;;;;;3.95;3.55;;;;;;;;;;4957368;29;20027;-29
2022/12/10 06:54:05;;;;;;;13.13;4.25;;;;;;;;;;4956046;28;20047;-30
2022/12/10 06:56:31;;;;;;;7.78;3.67;;;;;;;;;;4957031;29;20339;-29
2022/12/10 06:58:57;;;;;;;5.80;4.13;;;;;;;;;;4957051;29;20429;-30
2022/12/10 07:01:25;;;;;;;7.80;3.95;;;;;;;;;;4956977;29;20027;-30
2022/12/10 07:03:52;;;;;;;7.40;3.60;;;;;;;;;;4956886;28;20364;-30
2022/12/10 07:06:19;;;;;;;12.45;4.50;;;;;;;;;;4957235;29;20050;-30
2022/12/10 07:08:46;;;;;;;9.13;3.72;;;;;;;;;;4955981;29;20478;-30
2022/12/10 07:11:13;;;;;;;7.05;4.30;;;;;;;;;;4957076;29;20079;-30
2022/12/10 07:13:40;;;;;;;7.25;4.15;;;;;;;;;;4956694;28;20103;-30
2022/12/10 07:16:13;;;;;;;6.35;4.53;;;;;;;;;;4956742;29;20058;-30
2022/12/10 07:18:40;;;;;;;4.50;3.42;;;;;;;;;;4955729;29;20031;-30
2022/12/10 07:21:22;;;;;;;8.43;4.63;;;;;;;;;;4956698;29;20031;-29
2022/12/10 07:23:49;;;;;;;6.95;4.65;;;;;;;;;;4956573;28;20032;-30
2022/12/10 07:26:15;;;;;;;5.55;3.80;;;;;;;;;;4956894;29;20035;-30
2022/12/10 07:28:41;;;;;;;7.35;4.13;;;;;;;;;;4956584;29;20098;-29
2022/12/10 07:31:08;;;;;;;8.07;5.10;;;;;;;;;;4956320;28;20031;-30
2022/12/10 07:33:35;;;;;;;6.38;4.70;;;;;;;;;;4956478;28;20058;-30
2022/12/10 07:36:08;;;;;;;9.05;4.95;;;;;;;;;;4957261;29;20050;-30
2022/12/10 07:38:35;;;;;;;7.95;4.35;;;;;;;;;;4956681;29;20027;-29
2022/12/10 07:41:08;;;;;;;7.38;3.90;;;;;;;;;;4956118;29;20031;-29
2022/12/10 07:43:35;;;;;;;7.22;3.88;;;;;;;;;;4956170;28;20102;-30
2022/12/10 07:46:09;;;;;;;7.25;3.95;;;;;;;;;;4956408;29;20039;-30
2022/12/10 07:48:36;;;;;;;6.30;4.00;;;;;;;;;;4956414;29;20039;-30
2022/12/10 07:51:02;;;;;;;7.55;4.00;;;;;;;;;;4956058;29;20054;-30
2022/12/10 07:53:28;;;;;;;4.93;4.30;;;;;;;;;;4956370;28;20051;-30
2022/12/10 07:55:54;;;;;;;10.52;4.38;;;;;;;;;;4956052;29;20035;-30
2022/12/10 07:58:21;;;;;;;7.38;3.88;;;;;;;;;;4956044;29;20042;-30
2022/12/10 08:00:47;;;;;;;10.10;6.07;;;;;;;;;;4955908;29;20039;-30
2022/12/10 08:03:13;;;;;;;9.32;3.83;;;;;;;;;;4955760;28;20118;-30
2022/12/10 08:05:39;;;;;;;13.80;4.40;;;;;;;;;;4956093;29;20043;-30
2022/12/10 08:08:05;;;;;;;7.22;4.80;;;;;;;;;;4956082;29;20027;-30
2022/12/10 08:10:34;;;;;;;7.40;4.07;;;;;;;;;;4956180;29;20038;-30
2022/12/10 08:13:00;;;;;;;11.45;4.20;;;;;;;;;;4956098;28;20093;-30
2022/12/10 08:15:28;;;;;;;6.55;4.95;;;;;;;;;;4954985;29;20046;-30
2022/12/10 08:17:54;;;;;;;11.73;4.60;;;;;;;;;;4956147;29;20031;-30
2022/12/10 08:20:20;;;;;;;9.48;4.03;;;;;;;;;;4956092;29;20034;-28
2022/12/10 08:22:47;;;;;;;6.00;4.05;;;;;;;;;;4955625;28;20058;-28
2022/12/10 08:25:13;;;;;;;7.05;3.63;;;;;;;;;;4955764;29;20031;-29
2022/12/10 08:27:39;;;;;;;4.13;3.67;;;;;;;;;;4955636;29;20107;-28
2022/12/10 08:30:05;;;;;;;7.18;4.10;;;;;;;;;;4955689;29;20070;-29
2022/12/10 08:32:31;;;;;;;5.78;3.70;;;;;;;;;;4955620;28;20386;-29
2022/12/10 08:34:58;;;;;;;5.60;3.30;;;;;;;;;;4955900;29;20043;-29
2022/12/10 08:37:24;;;;;;;5.25;3.70;;;;;;;;;;4955659;29;20055;-29
2022/12/10 08:39:50;;;;;;;6.97;4.32;;;;;;;;;;4955744;29;20355;-28
2022/12/10 08:42:16;;;;;;;9.27;4.35;;;;;;;;;;4956984;28;20031;-28
2022/12/10 08:44:42;;;;;;;8.07;4.50;;;;;;;;;;4959607;29;20031;-28
2022/12/10 08:47:08;;;;;;;8.27;4.40;;;;;;;;;;4959178;29;20070;-29
2022/12/10 08:49:35;;;;;;;9.68;5.05;;;;;;;;;;4959423;29;20052;-28
2022/12/10 08:52:01;;;;;;;6.18;4.05;;;;;;;;;;4959063;28;20031;-29
2022/12/10 08:54:27;;;;;;;7.43;4.00;;;;;;;;;;4959447;29;20324;-28
2022/12/10 08:56:54;;;;;;;6.82;4.30;;;;;;;;;;4959060;29;20459;-29
2022/12/10 08:59:20;;;;;;;9.65;4.30;;;;;;;;;;4958993;29;20074;-29
2022/12/10 09:01:46;;;;;;;8.23;4.72;;;;;;;;;;4958820;28;20041;-27
2022/12/10 09:04:13;;;;;;;8.75;3.80;;;;;;;;;;4954589;28;20122;-28
2022/12/10 09:06:39;;;;;;;6.65;4.22;;;;;;;;;;4940017;29;20387;-28
2022/12/10 09:09:05;;;;;;;5.95;4.10;;;;;;;;;;4939550;29;20063;-28
2022/12/10 09:11:33;;;;;;;7.30;5.03;;;;;;;;;;4954529;29;20027;-28
2022/12/10 09:14:00;;;;;;;6.60;4.18;;;;;;;;;;4939404;29;20063;-28
2022/12/10 09:16:34;;;;;;;6.95;4.45;;;;;;;;;;4939743;29;20043;-28
2022/12/10 09:19:00;;;;;;;4.72;4.03;;;;;;;;;;4954424;29;20043;-28
2022/12/10 09:21:27;;;;;;;5.80;3.97;;;;;;;;;;4954373;29;20122;-29
2022/12/10 09:23:53;;;;;;;7.18;4.18;;;;;;;;;;4939269;29;20059;-28
2022/12/10 09:26:20;;;;;;;6.50;3.83;;;;;;;;;;4939416;29;20082;-28
2022/12/10 09:28:46;;;;;;;6.70;4.40;;;;;;;;;;4939344;29;20470;-29
2022/12/10 09:31:14;;;;;;;12.85;4.43;;;;;;;;;;4939289;29;20032;-28
2022/12/10 09:33:40;;;;;;;9.32;3.55;;;;;;;;;;4939124;29;20082;-28
2022/12/10 09:36:07;;;;;;;7.50;3.83;;;;;;;;;;4939241;29;20082;-28
2022/12/10 09:38:40;;;;;;;8.70;4.00;;;;;;;;;;4939460;29;20027;-29
2022/12/10 09:41:12;;;;;;;9.48;5.15;;;;;;;;;;4939016;29;20118;-29
2022/12/10 09:43:47;;;;;;;6.00;3.45;;;;;;;;;;4939124;29;20027;-28
2022/12/10 09:46:16;;;;;;;8.52;3.97;;;;;;;;;;4939431;29;20028;-29
2022/12/10 09:49:01;;;;;;;8.32;3.85;;;;;;;;;;4939046;29;20051;-29
2022/12/10 09:51:31;;;;;;;8.93;3.30;;;;;;;;;;4939012;29;20059;-27
2022/12/10 09:53:58;;;;;;;9.57;4.22;;;;;;;;;;4938696;29;20155;-28
2022/12/10 09:56:30;;;;;;;4.95;3.60;;;;;;;;;;4938854;29;20119;-28
2022/12/10 09:58:58;;;;;;;6.93;5.78;;;;;;;;;;4939579;29;20040;-28
2022/12/10 10:01:28;;;;;;;9.30;3.97;;;;;;;;;;4939071;29;20051;-28
2022/12/10 10:03:54;;;;;;;7.75;3.50;;;;;;;;;;4947598;29;20561;-28
2022/12/10 10:06:21;;;;;;;6.70;3.78;;;;;;;;;;4957931;29;20057;-28
2022/12/10 10:08:55;;;;;;;5.32;4.07;;;;;;;;;;4958123;29;20320;-29
2022/12/10 10:11:27;;;;;;;10.63;4.18;;;;;;;;;;4957863;29;20042;-28
2022/12/10 10:14:14;;;;;;;10.43;4.88;;;;;;;;;;4957608;28;20070;-28
2022/12/10 10:16:45;;;;;;;4.60;3.80;;;;;;;;;;4957690;29;20208;-28
2022/12/10 10:19:15;;;;;;;6.70;4.20;;;;;;;;;;4958046;29;20416;-29
2022/12/10 10:21:43;;;;;;;7.88;4.30;;;;;;;;;;4957503;29;20027;-28
2022/12/10 10:24:14;;;;;;;9.73;4.70;;;;;;;;;;4957302;29;20034;-28
2022/12/10 10:26:40;;;;;;;16.50;5.13;;;;;;;;;;4956263;29;20458;-28
2022/12/10 10:29:08;;;;;;;7.47;3.80;;;;;;;;;;4957396;29;20036;-28
2022/12/10 10:31:35;;;;;;;5.30;3.90;;;;;;;;;;4957421;29;20023;-28
2022/12/10 10:34:05;;;;;;;13.65;4.32;;;;;;;;;;4956228;28;20031;-29
2022/12/10 10:36:36;;;;;;;8.27;4.15;;;;;;;;;;4957402;29;20114;-28
2022/12/10 10:39:28;;;;;;;8.90;3.90;;;;;;;;;;4957196;29;20434;-28
2022/12/10 10:41:55;;;;;;;7.32;3.60;;;;;;;;;;4954237;28;20075;-28
2022/12/10 10:44:23;;;;;;;9.95;4.38;;;;;;;;;;4955923;29;20038;-28
2022/12/10 10:46:53;;;;;;;5.03;3.67;;;;;;;;;;4957157;29;20042;-29
2022/12/10 10:49:27;;;;;;;8.30;3.95;;;;;;;;;;4956878;29;20042;-29
2022/12/10 10:51:58;;;;;;;6.03;3.50;;;;;;;;;;4957022;28;20027;-29
2022/12/10 10:54:40;;;;;;;8.55;4.03;;;;;;;;;;4957115;29;20030;-35
2022/12/10 10:57:12;;;;;;;9.07;4.40;;;;;;;;;;4957041;29;20083;-29
2022/12/10 10:59:39;;;;;;;6.72;4.45;;;;;;;;;;4956982;29;20035;-30
2022/12/10 11:02:05;;;;;;;9.25;4.45;;;;;;;;;;4956884;28;20023;-29
2022/12/10 11:04:37;;;;;;;10.95;4.03;;;;;;;;;;4951800;28;20071;-29
2022/12/10 11:07:05;;;;;;;10.65;3.78;;;;;;;;;;4937733;29;20372;-29
2022/12/10 11:09:33;;;;;;;7.40;4.28;;;;;;;;;;4952372;29;20444;-30
2022/12/10 11:12:01;;;;;;;6.25;4.88;;;;;;;;;;4937296;29;20119;-29
2022/12/10 11:14:30;;;;;;;10.50;4.57;;;;;;;;;;4937345;29;20099;-30
2022/12/10 11:17:23;;;;;;;6.03;3.83;;;;;;;;;;4937491;29;20399;-29
2022/12/10 11:19:55;;;;;;;8.15;3.85;;;;;;;;;;4936364;29;20043;-29
2022/12/10 11:22:22;;;;;;;8.48;4.15;;;;;;;;;;4937507;29;20106;-29
2022/12/10 11:24:49;;;;;;;10.57;3.97;;;;;;;;;;4937210;29;20024;-29
2022/12/10 11:27:27;;;;;;;9.00;4.82;;;;;;;;;;4937179;29;20451;-29
2022/12/10 11:29:59;;;;;;;8.52;4.30;;;;;;;;;;4937406;29;20086;-29
2022/12/10 11:32:31;;;;;;;6.80;4.53;;;;;;;;;;4937055;29;20031;-29
2022/12/10 11:34:57;;;;;;;13.93;4.68;;;;;;;;;;4937359;29;20083;-29
2022/12/10 11:37:30;;;;;;;7.53;3.58;;;;;;;;;;4937155;29;20066;-29
2022/12/10 11:40:15;;;;;;;7.82;4.18;;;;;;;;;;4937372;29;20043;-30
2022/12/10 11:43:06;;;;;;;6.13;3.80;;;;;;;;;;4937102;29;20028;-28
2022/12/10 11:45:41;;;;;;;7.75;3.85;;;;;;;;;;4937203;29;20027;-30
2022/12/10 11:48:08;;;;;;;7.10;3.72;;;;;;;;;;4951928;29;20043;-29
2022/12/10 11:50:40;;;;;;;10.23;4.55;;;;;;;;;;4937177;29;20050;-29
2022/12/10 11:53:09;;;;;;;8.02;4.55;;;;;;;;;;4936920;29;20042;-29
2022/12/10 11:55:53;;;;;;;6.45;5.28;;;;;;;;;;4936841;29;20032;-29
2022/12/10 11:58:38;;;;;;;11.45;5.72;;;;;;;;;;4936943;29;20038;-30
2022/12/10 12:01:15;;;;;;;9.40;4.43;;;;;;;;;;4936790;29;20043;-29
2022/12/10 12:03:45;;;;;;;8.45;4.30;;;;;;;;;;4944081;29;20054;-30
2022/12/10 12:06:38;;;;;;;6.15;4.22;;;;;;;;;;4955907;29;20031;-30
2022/12/10 12:09:16;;;;;;;5.53;3.85;;;;;;;;;;4956193;29;20039;-29
2022/12/10 12:11:59;;;;;;;8.77;4.00;;;;;;;;;;4956169;29;20066;-30
2022/12/10 12:14:45;;;;;;;7.60;3.97;;;;;;;;;;4956148;29;20038;-29
2022/12/10 12:17:32;;;;;;;12.77;4.30;;;;;;;;;;4928022;29;20105;-29
2022/12/10 12:19:58;;;;;;;5.45;3.97;;;;;;;;;;4960355;29;20454;-30
2022/12/10 12:22:33;;;;;;;6.85;3.97;;;;;;;;;;4958886;28;20110;-34
2022/12/10 12:25:06;;;;;;;5.88;3.72;;;;;;;;;;4960025;29;20386;-29
2022/12/10 12:27:36;;;;;;;10.52;4.57;;;;;;;;;;4960003;29;20407;-29
2022/12/10 12:30:05;;;;;;;9.05;5.10;;;;;;;;;;4960047;29;20070;-30
2022/12/10 12:32:57;;;;;;;4.85;4.20;;;;;;;;;;4959807;28;20046;-28
2022/12/10 12:35:28;;;;;;;10.52;3.83;;;;;;;;;;4937471;29;20050;-30
2022/12/10 12:37:56;;;;;;;19.02;6.07;;;;;;;;;;4959781;29;20055;-29
2022/12/10 12:40:31;;;;;;;13.60;4.63;;;;;;;;;;4958309;29;20105;-29
2022/12/10 12:42:59;;;;;;;6.80;3.83;;;;;;;;;;4959898;28;20027;-30
2022/12/10 12:45:25;;;;;;;7.70;5.25;;;;;;;;;;4959278;29;20031;-30
2022/12/10 12:48:02;;;;;;;7.53;4.55;;;;;;;;;;4959255;29;20032;-29
2022/12/10 12:50:43;;;;;;;5.93;3.90;;;;;;;;;;4959246;29;20039;-29
2022/12/10 12:53:12;;;;;;;10.60;4.88;;;;;;;;;;4958103;28;20031;-30
2022/12/10 12:55:50;;;;;;;11.70;4.20;;;;;;;;;;4959040;29;20034;-29
2022/12/10 12:58:19;;;;;;;10.38;4.40;;;;;;;;;;4958157;29;20038;-29
2022/12/10 13:00:48;;;;;;;6.55;4.63;;;;;;;;;;4958903;29;20043;-30
2022/12/10 13:03:28;;;;;;;15.88;4.70;;;;;;;;;;4958692;28;20039;-29
2022/12/10 13:05:54;;;;;;;15.30;5.68;;;;;;;;;;4959118;29;20059;-29
2022/12/10 13:08:20;;;;;;;5.28;4.75;;;;;;;;;;4959169;29;20023;-29
2022/12/10 13:10:51;;;;;;;7.40;4.15;;;;;;;;;;4958958;29;20406;-29
2022/12/10 13:13:32;;;;;;;9.40;4.38;;;;;;;;;;4958831;28;20027;-30
2022/12/10 13:16:18;;;;;;;7.63;4.60;;;;;;;;;;4957935;29;20166;-29
2022/12/10 13:18:44;;;;;;;6.55;4.22;;;;;;;;;;4958614;29;20455;-30
2022/12/10 13:21:25;;;;;;;11.48;5.50;;;;;;;;;;4959210;29;20028;-29
2022/12/10 13:24:05;;;;;;;7.32;4.10;;;;;;;;;;4957699;28;20031;-29
2022/12/10 13:26:31;;;;;;;8.18;4.20;;;;;;;;;;4958992;29;20439;-29
2022/12/10 13:29:30;;;;;;;7.30;3.80;;;;;;;;;;4958217;28;20028;-29
2022/12/10 13:32:03;;;;;;;10.10;4.50;;;;;;;;;;4926987;28;20109;-29
2022/12/10 13:34:35;;;;;;;10.73;4.40;;;;;;;;;;4958505;29;20025;-29
2022/12/10 13:37:01;;;;;;;19.00;6.55;;;;;;;;;;4958594;29;20023;-30
2022/12/10 13:39:45;;;;;;;6.03;4.32;;;;;;;;;;4958570;29;20031;-29
2022/12/10 13:45:01;;;;;;;5.80;4.40;;;;;;;;;;4958876;29;20046;-29
2022/12/10 13:47:32;;;;;;;18.50;5.38;;;;;;;;;;4958609;29;20027;-29
2022/12/10 13:49:58;;;;;;;;;;;;;;;;;;4959211;29;20106;-29
2022/12/10 13:52:43;;;;;;;5.32;4.30;;;;;;;;;;4958848;28;20326;-29
2022/12/10 13:55:09;;;;;;;14.73;5.00;;;;;;;;;;4958911;29;20035;-29
2022/12/10 13:57:46;;;;;;;11.80;4.68;;;;;;;;;;4958649;29;20031;-30
2022/12/10 14:00:21;;;;;;;7.05;3.85;;;;;;;;;;4958852;29;20043;-29
2022/12/10 14:03:03;;;;;;;5.03;3.97;;;;;;;;;;4958327;28;20027;-29
2022/12/10 14:05:47;;;;;;;5.57;4.70;;;;;;;;;;4958511;29;20067;-29
2022/12/10 14:08:17;;;;;;;8.30;4.60;;;;;;;;;;4958500;29;20051;-29
2022/12/10 14:10:43;;;;;;;8.88;4.25;;;;;;;;;;4958411;29;20485;-29
2022/12/10 14:13:12;;;;;;;6.63;4.72;;;;;;;;;;4958535;28;20031;-29
2022/12/10 14:15:38;;;;;;;6.18;4.35;;;;;;;;;;4958581;29;20135;-29
2022/12/10 14:18:10;;;;;;;5.20;4.03;;;;;;;;;;4958232;29;20455;-30
2022/12/10 14:20:36;;;;;;;11.40;4.43;;;;;;;;;;4958463;29;20090;-29
2022/12/10 14:25:52;;;;;;;4.55;4.07;;;;;;;;;;4958441;29;20054;-30
2022/12/10 14:28:18;;;;;;;6.18;3.83;;;;;;;;;;4957985;29;20024;-28
2022/12/10 14:30:46;;;;;;;8.32;4.45;;;;;;;;;;4958011;29;20027;-30
2022/12/10 14:33:18;;;;;;;7.88;4.03;;;;;;;;;;4958018;28;20415;-29
2022/12/10 14:35:47;;;;;;;4.35;3.97;;;;;;;;;;4958243;29;20119;-30
2022/12/10 14:38:20;;;;;;;7.35;4.55;;;;;;;;;;4958143;29;20034;-29
2022/12/10 14:40:46;;;;;;;8.68;4.57;;;;;;;;;;4956926;28;20114;-30
2022/12/10 14:43:14;;;;;;;7.20;4.38;;;;;;;;;;4957640;28;20027;-29
2022/12/10 14:45:51;;;;;;;4.65;4.00;;;;;;;;;;4958020;29;20031;-29
2022/12/10 14:48:17;;;;;;;5.35;3.90;;;;;;;;;;4957994;29;20366;-30
2022/12/10 14:50:45;;;;;;;9.63;3.95;;;;;;;;;;4957599;29;20031;-29
2022/12/10 14:53:18;;;;;;;7.15;4.35;;;;;;;;;;4957799;28;20032;-28
2022/12/10 14:55:46;;;;;;;8.95;4.20;;;;;;;;;;4957844;29;20042;-29
2022/12/10 14:58:19;;;;;;;6.20;3.65;;;;;;;;;;4956574;29;20034;-29
2022/12/10 15:00:45;;;;;;;7.07;5.20;;;;;;;;;;4957432;29;20451;-29
2022/12/10 15:03:14;;;;;;;7.57;4.07;;;;;;;;;;4957142;28;20039;-29
2022/12/10 15:05:40;;;;;;;5.40;4.13;;;;;;;;;;4957393;29;20031;-29
2022/12/10 15:08:13;;;;;;;7.45;4.35;;;;;;;;;;4957494;29;20051;-30